createdAt,value
2023-04-27T00:00:37.751Z,92.6281
2023-04-27T00:01:38.293Z,92.7077
2023-04-27T00:02:39.575Z,93.0416
2023-04-27T00:03:40.003Z,93.1433
2023-04-27T00:04:40.303Z,93.2286
2023-04-27T00:05:40.354Z,93.2598
2023-04-27T00:06:40.332Z,93.1839
2023-04-27T00:07:40.972Z,93.1790
2023-04-27T00:08:41.528Z,93.0350
2023-04-27T00:09:41.938Z,93.0837
2023-04-27T00:10:42.611Z,93.3316
2023-04-27T00:11:43.233Z,93.5609
2023-04-27T00:12:43.838Z,93.7996
2023-04-27T00:13:44.376Z,94.0351
2023-04-27T00:14:44.933Z,94.1791
2023-04-27T00:15:45.485Z,94.3036
2023-04-27T00:16:46.074Z,94.3956
2023-04-27T00:17:46.872Z,94.4702
2023-04-27T00:18:47.651Z,94.4913
2023-04-27T00:19:47.629Z,94.5001
2023-04-27T00:20:48.087Z,94.4920
2023-04-27T00:21:48.863Z,94.4803
2023-04-27T00:22:49.389Z,94.5062
2023-04-27T00:23:50.020Z,94.4812
2023-04-27T00:24:50.691Z,94.4780
2023-04-27T00:25:51.413Z,94.4818
2023-04-27T00:26:52.058Z,94.5232
2023-04-27T00:27:52.665Z,94.5946
2023-04-27T00:28:53.083Z,94.6493
2023-04-27T00:29:53.689Z,94.7054
2023-04-27T00:30:54.176Z,94.7537
2023-04-27T00:31:54.956Z,94.7913
2023-04-27T00:32:55.836Z,94.8015
2023-04-27T00:33:56.415Z,94.8185
2023-04-27T00:34:57.063Z,94.8483
2023-04-27T00:35:57.782Z,94.8298
2023-04-27T00:36:58.298Z,94.7041
2023-04-27T00:37:58.893Z,94.5752
2023-04-27T00:38:59.287Z,94.4871
2023-04-27T00:39:59.820Z,94.4612
2023-04-27T00:41:00.467Z,94.3923
2023-04-27T00:42:00.854Z,94.3026
2023-04-27T00:43:01.652Z,94.2564
2023-04-27T00:44:02.251Z,94.2052
2023-04-27T00:45:02.675Z,94.1591
2023-04-27T00:46:03.831Z,94.1196
2023-04-27T00:47:04.358Z,94.1496
2023-04-27T00:48:05.347Z,94.2068
2023-04-27T00:49:05.906Z,94.2332
2023-04-27T00:50:07.178Z,94.2604
2023-04-27T00:51:07.897Z,94.3142
2023-04-27T00:52:08.735Z,94.2898
2023-04-27T00:53:09.231Z,94.2719
2023-04-27T00:54:09.852Z,94.2410
2023-04-27T00:55:10.566Z,94.3232
2023-04-27T00:56:10.986Z,94.3332
2023-04-27T00:57:11.574Z,94.3427
2023-04-27T00:58:12.033Z,94.3619
2023-04-27T00:59:12.965Z,94.3362
2023-04-27T01:00:13.772Z,94.3078
2023-04-27T01:01:14.431Z,94.2974
2023-04-27T01:04:16.368Z,94.4252
2023-04-27T01:05:16.502Z,94.4684
2023-04-27T01:06:17.028Z,94.5663
2023-04-27T01:07:17.649Z,94.6020
2023-04-27T01:08:18.835Z,94.7169
2023-04-27T01:09:19.468Z,94.8377
2023-04-27T01:10:19.545Z,94.8727
2023-04-27T01:11:20.194Z,94.9318
2023-04-27T01:12:20.737Z,95.0334
2023-04-27T01:13:21.386Z,95.1140
2023-04-27T01:14:22.116Z,95.1509
2023-04-27T01:15:22.540Z,95.1857
2023-04-27T01:16:23.191Z,95.2353
2023-04-27T01:17:23.935Z,95.2669
2023-04-27T01:18:24.861Z,95.2819
2023-04-27T01:19:25.789Z,95.3493
2023-04-27T01:20:26.304Z,95.4164
2023-04-27T01:21:27.280Z,95.4026
2023-04-27T01:22:27.895Z,95.3820
2023-04-27T01:23:28.331Z,95.3628
2023-04-27T01:24:29.035Z,95.3462
2023-04-27T01:25:29.527Z,95.3193
2023-04-27T01:26:30.169Z,95.2971
2023-04-27T01:27:30.941Z,95.2654
2023-04-27T01:28:31.361Z,95.2335
2023-04-27T01:29:32.151Z,95.1940
2023-04-27T01:30:33.270Z,95.1342
2023-04-27T01:31:33.416Z,95.0478
2023-04-27T01:32:33.758Z,95.0096
2023-04-27T01:33:34.519Z,94.9836
2023-04-27T01:34:35.069Z,94.9533
2023-04-27T01:35:35.795Z,94.8989
2023-04-27T01:36:36.470Z,94.8862
2023-04-27T01:37:37.397Z,94.7520
2023-04-27T01:38:38.020Z,94.6467
2023-04-27T01:39:38.462Z,94.6630
2023-04-27T01:40:39.266Z,94.7513
2023-04-27T01:41:39.731Z,94.8406
2023-04-27T01:42:40.264Z,94.9808
2023-04-27T01:43:40.931Z,95.1339
2023-04-27T01:44:41.402Z,95.2221
2023-04-27T01:45:42.043Z,95.3617
2023-04-27T01:46:43.129Z,95.4191
2023-04-27T01:47:43.808Z,95.4990
2023-04-27T01:48:44.741Z,95.5616
2023-04-27T01:49:45.953Z,95.5886
2023-04-27T01:50:46.353Z,95.6550
2023-04-27T01:51:46.897Z,95.6950
2023-04-27T01:52:47.427Z,95.7250
2023-04-27T01:53:48.181Z,95.8023
2023-04-27T01:54:48.659Z,95.8407
2023-04-27T01:55:49.189Z,95.8427
2023-04-27T01:56:50.137Z,95.8509
2023-04-27T01:57:50.873Z,95.8913
2023-04-27T01:58:51.267Z,95.9422
2023-04-27T01:59:51.911Z,95.9798
2023-04-27T02:00:52.193Z,96.0112
2023-04-27T02:01:53.073Z,96.0309
2023-04-27T02:02:53.519Z,96.0530
2023-04-27T02:03:53.567Z,96.0572
2023-04-27T02:04:54.083Z,96.0864
2023-04-27T02:05:54.499Z,96.1129
2023-04-27T02:06:55.429Z,96.1327
2023-04-27T02:07:56.270Z,96.1914
2023-04-27T02:08:56.824Z,96.2102
2023-04-27T02:09:57.404Z,96.2739
2023-04-27T02:10:58.363Z,96.3210
2023-04-27T02:11:59.113Z,96.3550
2023-04-27T02:12:59.726Z,96.3696
2023-04-27T02:14:00.552Z,96.3762
2023-04-27T02:15:01.360Z,96.3997
2023-04-27T02:16:02.180Z,96.4168
2023-04-27T02:17:03.299Z,96.4377
2023-04-27T02:18:04.399Z,96.4766
2023-04-27T02:19:05.300Z,96.5122
2023-04-27T02:20:06.122Z,96.5020
2023-04-27T02:21:06.892Z,96.5238
2023-04-27T02:22:07.597Z,96.5865
2023-04-27T02:23:08.087Z,96.6750
2023-04-27T02:24:08.873Z,96.7819
2023-04-27T02:25:10.289Z,96.8694
2023-04-27T02:26:11.156Z,96.9122
2023-04-27T02:28:11.568Z,96.9584
2023-04-27T02:29:12.619Z,96.9621
2023-04-27T02:30:13.182Z,96.9729
2023-04-27T02:31:14.281Z,96.9717
2023-04-27T02:32:15.345Z,96.9751
2023-04-27T02:33:16.278Z,96.9859
2023-04-27T02:34:16.840Z,96.9974
2023-04-27T02:35:17.975Z,97.0339
2023-04-27T02:36:18.723Z,97.0653
2023-04-27T02:37:19.185Z,97.0905
2023-04-27T02:38:19.993Z,97.1087
2023-04-27T02:39:20.548Z,97.1092
2023-04-27T02:40:21.185Z,97.1155
2023-04-27T02:41:21.937Z,97.1097
2023-04-27T02:42:22.415Z,97.0996
2023-04-27T02:43:23.247Z,97.0797
2023-04-27T02:44:23.901Z,97.0852
2023-04-27T02:45:24.577Z,97.0899
2023-04-27T02:46:25.554Z,97.0707
2023-04-27T02:47:26.436Z,97.0359
2023-04-27T02:48:27.260Z,97.0005
2023-04-27T02:49:27.694Z,96.9883
2023-04-27T02:50:27.900Z,96.9638
2023-04-27T02:51:28.732Z,96.9465
2023-04-27T02:52:29.302Z,96.9585
2023-04-27T02:53:30.333Z,96.9560
2023-04-27T02:54:30.929Z,96.9645
2023-04-27T02:55:31.538Z,96.9722
2023-04-27T02:56:32.396Z,96.9953
2023-04-27T02:57:33.133Z,97.0259
2023-04-27T02:58:33.603Z,97.0452
2023-04-27T02:59:34.763Z,97.0656
2023-04-27T03:00:35.573Z,97.0888
2023-04-27T03:01:36.545Z,97.1138
2023-04-27T03:02:36.595Z,97.1178
2023-04-27T03:03:37.594Z,97.1320
2023-04-27T03:04:38.695Z,97.1428
2023-04-27T03:06:38.797Z,97.1700
2023-04-27T03:07:39.451Z,97.1722
2023-04-27T03:08:40.159Z,97.1652
2023-04-27T03:09:40.865Z,97.1744
2023-04-27T03:10:41.513Z,97.1559
2023-04-27T03:11:42.092Z,97.1626
2023-04-27T03:12:42.814Z,97.1887
2023-04-27T03:13:43.510Z,97.1846
2023-04-27T03:14:44.015Z,97.1674
2023-04-27T03:15:44.034Z,97.1625
2023-04-27T03:16:44.696Z,97.1450
2023-04-27T03:17:45.545Z,97.1284
2023-04-27T03:18:46.245Z,97.1285
2023-04-27T03:19:47.440Z,97.1324
2023-04-27T03:20:47.952Z,97.1258
2023-04-27T03:21:48.727Z,97.1157
2023-04-27T03:22:49.283Z,97.1398
2023-04-27T03:23:49.946Z,97.1796
2023-04-27T03:24:50.633Z,97.2176
2023-04-27T03:25:51.183Z,97.2313
2023-04-27T03:26:51.834Z,97.2281
2023-04-27T03:27:52.287Z,97.2188
2023-04-27T03:28:54.724Z,97.2223
2023-04-27T03:29:55.437Z,97.2437
2023-04-27T03:30:55.836Z,97.2710
2023-04-27T03:31:56.896Z,97.2831
2023-04-27T03:32:57.453Z,97.2404
2023-04-27T03:33:57.873Z,97.1661
2023-04-27T03:34:58.536Z,97.1484
2023-04-27T03:35:59.114Z,97.1596
2023-04-27T03:36:59.571Z,97.1792
2023-04-27T03:38:00.215Z,97.2239
2023-04-27T03:39:00.709Z,97.2688
2023-04-27T03:40:01.783Z,97.2678
2023-04-27T03:41:02.470Z,97.2758
2023-04-27T03:42:02.909Z,97.3263
2023-04-27T03:43:03.824Z,97.3651
2023-04-27T03:44:04.462Z,97.3932
2023-04-27T03:45:04.944Z,97.4148
2023-04-27T03:46:06.144Z,97.4148
2023-04-27T03:47:06.901Z,97.4517
2023-04-27T03:48:08.141Z,97.4913
2023-04-27T03:49:08.757Z,97.5135
2023-04-27T03:50:08.873Z,97.5481
2023-04-27T03:51:09.558Z,97.5762
2023-04-27T03:52:10.268Z,97.6104
2023-04-27T03:53:10.988Z,97.6402
2023-04-27T03:54:11.837Z,97.6648
2023-04-27T03:55:12.579Z,97.6667
2023-04-27T03:56:13.167Z,97.6483
2023-04-27T03:57:13.855Z,97.6407
2023-04-27T03:58:14.680Z,97.6348
2023-04-27T03:59:15.487Z,97.6166
2023-04-27T04:00:15.140Z,97.6172
2023-04-27T04:01:16.142Z,97.6149
2023-04-27T04:02:17.130Z,97.5966
2023-04-27T04:03:18.384Z,97.5698
2023-04-27T04:04:18.648Z,97.5554
2023-04-27T04:05:19.313Z,97.5431
2023-04-27T04:12:29.156Z,97.5945
2023-04-27T04:13:30.177Z,97.6047
2023-04-27T04:19:37.782Z,97.5762
2023-04-27T04:20:38.542Z,97.5517
2023-04-27T04:21:39.570Z,97.5171
2023-04-27T04:22:40.090Z,97.4610
2023-04-27T04:31:54.283Z,97.3241
2023-04-27T04:32:55.138Z,97.3557
2023-04-27T04:33:55.845Z,97.3942
2023-04-27T04:34:56.347Z,97.4160
2023-04-27T04:35:56.843Z,97.4186
2023-04-27T04:36:57.881Z,97.4756
2023-04-27T04:38:00.238Z,97.5469
2023-04-27T04:39:02.177Z,97.5719
2023-04-27T04:40:03.446Z,97.5766
2023-04-27T04:41:04.654Z,97.5751
2023-04-27T04:42:05.476Z,97.5765
2023-04-27T04:43:05.736Z,97.5711
2023-04-27T04:44:06.246Z,97.5715
2023-04-27T04:45:08.530Z,97.5926
2023-04-27T04:46:10.767Z,97.5932
2023-04-27T04:47:12.114Z,97.5980
2023-04-27T04:48:13.149Z,97.5933
2023-04-27T04:49:14.236Z,97.5961
2023-04-27T04:50:15.515Z,97.6004
2023-04-27T04:51:14.483Z,97.6143
2023-04-27T04:52:25.982Z,97.6327
2023-04-27T04:53:26.895Z,97.6465
2023-04-27T04:54:28.080Z,97.6423
2023-04-27T04:55:28.512Z,97.5448
2023-04-27T04:56:29.515Z,97.4350
2023-04-27T04:57:31.797Z,97.3396
2023-04-27T04:58:33.135Z,97.3370
2023-04-27T04:59:33.333Z,97.3551
2023-04-27T05:00:33.990Z,97.3594
2023-04-27T05:01:34.927Z,97.3706
2023-04-27T05:02:36.176Z,97.3558
2023-04-27T05:03:37.799Z,97.3348
2023-04-27T05:04:38.622Z,97.3191
2023-04-27T05:06:38.929Z,97.3159
2023-04-27T05:07:39.682Z,97.3304
2023-04-27T05:08:40.019Z,97.3435
2023-04-27T05:09:40.680Z,97.3742
2023-04-27T05:10:41.822Z,97.3694
2023-04-27T05:11:42.678Z,97.3746
2023-04-27T05:12:43.712Z,97.3667
2023-04-27T05:13:44.591Z,97.1995
2023-04-27T05:14:45.046Z,96.8570
2023-04-27T05:15:45.566Z,96.6461
2023-04-27T05:21:54.435Z,96.9058
2023-04-27T05:22:56.120Z,96.9385
2023-04-27T05:23:56.677Z,96.9576
2023-04-27T05:25:09.325Z,96.9600
2023-04-27T05:26:10.334Z,96.9187
2023-04-27T05:27:10.373Z,96.8830
2023-04-27T05:28:11.890Z,96.8880
2023-04-27T05:29:12.255Z,96.8929
2023-04-27T05:30:13.029Z,96.8914
2023-04-27T05:31:14.424Z,96.9386
2023-04-27T05:32:15.791Z,96.9978
2023-04-27T05:33:16.575Z,97.0813
2023-04-27T05:34:17.902Z,97.1465
2023-04-27T05:35:18.244Z,97.2045
2023-04-27T05:36:19.245Z,97.2048
2023-04-27T05:37:20.561Z,97.2088
2023-04-27T05:38:21.317Z,97.2523
2023-04-27T05:39:22.166Z,97.3050
2023-04-27T05:40:22.976Z,97.3268
2023-04-27T05:41:24.182Z,97.3491
2023-04-27T05:44:26.383Z,97.3225
2023-04-27T05:45:28.380Z,97.3121
2023-04-27T05:46:32.867Z,97.3030
2023-04-27T05:48:29.932Z,97.3599
2023-04-27T05:49:30.689Z,97.3859
2023-04-27T05:50:31.187Z,97.3824
2023-04-27T05:56:38.911Z,97.2810
2023-04-27T05:57:39.749Z,97.2826
2023-04-27T05:58:40.099Z,97.2967
2023-04-27T05:59:40.634Z,97.3070
2023-04-27T06:00:41.452Z,97.3000
2023-04-27T06:01:42.306Z,97.2756
2023-04-27T06:02:42.626Z,97.2561
2023-04-27T06:03:42.826Z,97.1730
2023-04-27T06:04:43.229Z,97.1343
2023-04-27T06:05:43.255Z,97.1385
2023-04-27T06:06:44.624Z,97.1327
2023-04-27T06:07:45.390Z,97.1119
2023-04-27T06:08:46.345Z,97.0849
2023-04-27T06:09:47.565Z,97.0759
2023-04-27T06:10:48.114Z,97.0461
2023-04-27T06:11:48.976Z,97.0353
2023-04-27T06:12:49.572Z,97.0694
2023-04-27T06:13:50.224Z,97.1382
2023-04-27T06:14:51.312Z,97.1889
2023-04-27T06:15:52.029Z,97.2215
2023-04-27T06:16:52.832Z,97.2754
2023-04-27T06:17:53.777Z,97.2317
2023-04-27T06:18:54.405Z,97.2081
2023-04-27T06:19:55.118Z,97.1674
2023-04-27T06:20:56.097Z,97.1124
2023-04-27T06:21:57.157Z,97.0584
2023-04-27T06:22:57.745Z,97.0087
2023-04-27T06:23:58.696Z,96.9197
2023-04-27T06:24:59.466Z,96.8223
2023-04-27T06:26:01.138Z,96.7101
2023-04-27T06:27:00.330Z,96.6260
2023-04-27T06:28:01.016Z,96.0251
2023-04-27T06:29:01.848Z,94.9086
2023-04-27T06:30:02.358Z,94.7773
2023-04-27T06:31:03.417Z,94.9274
2023-04-27T06:32:04.794Z,94.6690
2023-04-27T06:33:05.702Z,94.6838
2023-04-27T06:34:06.402Z,94.9693
2023-04-27T06:35:07.147Z,95.0269
2023-04-27T06:36:08.149Z,95.3214
2023-04-27T06:37:09.075Z,95.6335
2023-04-27T06:38:10.002Z,95.5680
2023-04-27T06:39:10.482Z,95.2493
2023-04-27T06:40:11.429Z,94.9157
2023-04-27T06:41:12.057Z,94.9777
2023-04-27T06:42:12.796Z,94.9603
2023-04-27T06:43:13.602Z,94.5994
2023-04-27T06:44:14.837Z,94.1901
2023-04-27T06:45:15.489Z,94.1295
2023-04-27T06:46:16.392Z,94.0725
2023-04-27T06:47:17.076Z,93.9878
2023-04-27T06:48:17.913Z,94.0152
2023-04-27T06:49:18.645Z,93.8415
2023-04-27T06:50:19.083Z,93.7151
2023-04-27T06:51:19.698Z,93.3814
2023-04-27T06:52:20.397Z,93.4789
2023-04-27T06:53:20.741Z,93.9612
2023-04-27T06:54:21.424Z,93.8317
2023-04-27T06:55:21.912Z,93.7445
2023-04-27T06:56:22.155Z,93.9867
2023-04-27T06:57:22.812Z,94.1420
2023-04-27T06:58:23.555Z,94.0624
2023-04-27T06:59:24.893Z,93.5740
2023-04-27T07:00:25.682Z,93.1678
2023-04-27T07:01:26.537Z,92.7878
2023-04-27T07:02:28.191Z,92.7348
2023-04-27T07:03:28.248Z,92.8197
2023-04-27T07:04:29.253Z,93.3817
2023-04-27T07:05:29.119Z,93.7427
2023-04-27T07:06:29.675Z,94.0155
2023-04-27T07:07:30.365Z,94.1285
2023-04-27T07:08:30.875Z,94.1902
2023-04-27T07:09:31.622Z,93.7550
2023-04-27T07:10:32.178Z,93.8007
2023-04-27T07:11:32.960Z,93.8738
2023-04-27T07:12:33.374Z,93.5829
2023-04-27T07:13:34.012Z,93.4867
2023-04-27T07:14:34.660Z,93.6523
2023-04-27T07:15:35.164Z,93.7222
2023-04-27T07:16:36.065Z,93.4416
2023-04-27T07:17:37.151Z,93.2826
2023-04-27T07:18:37.830Z,92.8133
2023-04-27T07:19:38.980Z,91.9211
2023-04-27T07:20:39.761Z,92.2582
2023-04-27T07:21:40.462Z,92.5561
2023-04-27T07:22:41.124Z,92.3036
2023-04-27T07:23:41.619Z,91.5612
2023-04-27T07:24:42.177Z,91.7366
2023-04-27T07:25:42.876Z,91.5949
2023-04-27T07:26:43.409Z,91.0324
2023-04-27T07:27:44.105Z,90.8381
2023-04-27T07:28:44.732Z,91.4203
2023-04-27T07:29:45.197Z,91.6642
2023-04-27T07:30:45.884Z,92.1471
2023-04-27T07:31:46.818Z,92.1509
2023-04-27T07:32:47.729Z,90.7554
2023-04-27T07:33:48.517Z,90.7983
2023-04-27T07:34:53.703Z,91.1774
2023-04-27T07:35:50.310Z,90.4668
2023-04-27T07:36:51.066Z,90.6829
2023-04-27T07:37:51.805Z,91.2961
2023-04-27T07:38:52.285Z,89.7175
2023-04-27T07:39:53.019Z,89.1875
2023-04-27T07:40:53.254Z,88.9293
2023-04-27T07:41:53.884Z,88.7703
2023-04-27T07:42:54.598Z,86.7099
2023-04-27T07:43:55.047Z,86.5763
2023-04-27T07:44:55.809Z,86.9377
2023-04-27T07:45:56.669Z,87.5320
2023-04-27T07:46:57.756Z,87.7928
2023-04-27T07:47:58.994Z,87.7852
2023-04-27T07:48:58.751Z,88.4758
2023-04-27T07:49:59.261Z,88.4725
2023-04-27T07:50:59.922Z,87.9720
2023-04-27T07:52:00.387Z,87.8125
2023-04-27T07:53:01.058Z,88.2331
2023-04-27T07:54:01.887Z,88.5463
2023-04-27T07:55:02.753Z,88.1118
2023-04-27T07:56:03.551Z,86.2505
2023-04-27T07:57:04.281Z,86.1014
2023-04-27T07:58:04.872Z,86.3920
2023-04-27T07:59:05.566Z,85.2951
2023-04-27T08:00:06.714Z,85.3187
2023-04-27T08:01:07.538Z,84.8964
2023-04-27T08:02:19.697Z,85.4235
2023-04-27T08:03:12.509Z,85.0792
2023-04-27T08:04:12.646Z,85.9614
2023-04-27T08:05:12.925Z,85.2312
2023-04-27T08:06:13.201Z,84.6135
2023-04-27T08:07:14.072Z,84.7166
2023-04-27T08:08:14.899Z,84.7071
2023-04-27T08:09:14.758Z,83.7759
2023-04-27T08:10:14.534Z,83.4343
2023-04-27T08:11:15.199Z,84.8685
2023-04-27T08:12:16.105Z,85.6993
2023-04-27T08:13:16.665Z,83.7090
2023-04-27T08:14:17.169Z,84.2450
2023-04-27T08:15:18.247Z,85.6714
2023-04-27T08:16:18.930Z,87.7082
2023-04-27T08:17:20.124Z,88.0466
2023-04-27T08:18:21.176Z,88.9400
2023-04-27T08:19:22.066Z,89.6323
2023-04-27T08:20:22.844Z,89.3129
2023-04-27T08:21:23.528Z,90.2294
2023-04-27T08:22:24.190Z,90.3054
2023-04-27T08:23:24.998Z,90.2591
2023-04-27T08:24:25.657Z,89.4344
2023-04-27T08:25:26.373Z,87.6650
2023-04-27T08:26:28.543Z,85.7846
2023-04-27T08:27:29.255Z,85.8871
2023-04-27T08:28:29.988Z,85.2539
2023-04-27T08:29:30.969Z,85.5121
2023-04-27T08:30:31.718Z,84.3611
2023-04-27T08:31:32.474Z,83.7501
2023-04-27T08:32:33.884Z,83.2994
2023-04-27T08:33:34.736Z,82.5505
2023-04-27T08:34:35.240Z,82.5851
2023-04-27T08:35:35.981Z,83.8483
2023-04-27T08:36:36.548Z,85.4524
2023-04-27T08:37:37.273Z,85.0249
2023-04-27T08:38:37.944Z,84.1867
2023-04-27T08:39:38.941Z,82.7418
2023-04-27T08:40:39.655Z,82.8118
2023-04-27T08:41:40.311Z,82.8893
2023-04-27T08:42:41.035Z,83.5696
2023-04-27T08:43:41.858Z,82.3312
2023-04-27T08:44:42.955Z,83.2029
2023-04-27T08:45:43.499Z,84.7017
2023-04-27T08:46:44.719Z,81.9805
2023-04-27T08:47:46.159Z,82.0835
2023-04-27T08:48:47.004Z,82.9216
2023-04-27T08:49:47.207Z,83.5107
2023-04-27T08:50:47.447Z,84.1097
2023-04-27T08:51:48.181Z,83.1329
2023-04-27T08:52:48.930Z,82.8677
2023-04-27T08:53:49.546Z,83.8794
2023-04-27T08:54:50.255Z,84.0297
2023-04-27T08:55:51.065Z,83.2486
2023-04-27T08:56:51.650Z,83.3290
2023-04-27T08:57:52.356Z,82.2337
2023-04-27T08:58:52.824Z,81.9826
2023-04-27T08:59:53.480Z,82.8204
2023-04-27T09:00:54.443Z,82.2555
2023-04-27T09:01:55.520Z,81.4189
2023-04-27T09:02:56.000Z,80.7778
2023-04-27T09:03:56.280Z,81.7656
2023-04-27T09:04:57.316Z,80.5107
2023-04-27T09:06:06.005Z,80.6795
2023-04-27T09:07:04.486Z,80.4195
2023-04-27T09:08:05.144Z,81.4137
2023-04-27T09:09:05.886Z,78.8725
2023-04-27T09:10:07.164Z,77.9681
2023-04-27T09:11:07.742Z,78.6616
2023-04-27T09:12:08.365Z,80.8840
2023-04-27T09:13:08.893Z,80.6156
2023-04-27T09:14:09.554Z,80.4180
2023-04-27T09:15:10.264Z,80.7554
2023-04-27T09:16:11.029Z,80.4783
2023-04-27T09:17:11.086Z,79.9709
2023-04-27T09:18:11.919Z,79.1310
2023-04-27T09:19:12.890Z,77.6709
2023-04-27T09:20:13.692Z,77.1913
2023-04-27T09:21:14.796Z,75.1581
2023-04-27T09:22:15.159Z,73.4258
2023-04-27T09:23:15.884Z,73.3290
2023-04-27T09:24:16.615Z,72.5072
2023-04-27T09:25:17.089Z,73.6588
2023-04-27T09:26:17.853Z,73.5821
2023-04-27T09:27:18.696Z,73.5656
2023-04-27T09:28:19.541Z,73.4353
2023-04-27T09:29:20.220Z,73.4744
2023-04-27T09:30:21.044Z,73.0111
2023-04-27T09:31:21.835Z,73.1953
2023-04-27T09:32:23.006Z,73.9963
2023-04-27T09:33:23.858Z,73.4939
2023-04-27T09:34:24.838Z,73.1047
2023-04-27T09:35:25.506Z,73.4804
2023-04-27T09:36:26.004Z,73.5138
2023-04-27T09:37:26.689Z,73.6560
2023-04-27T09:38:26.776Z,74.4903
2023-04-27T09:39:27.477Z,74.2627
2023-04-27T09:40:28.160Z,73.6053
2023-04-27T09:41:28.638Z,73.3278
2023-04-27T09:42:29.313Z,72.7754
2023-04-27T09:43:30.121Z,73.9131
2023-04-27T09:44:30.855Z,74.4786
2023-04-27T09:45:31.609Z,71.0315
2023-04-27T09:46:32.611Z,69.0689
2023-04-27T09:47:33.283Z,70.5257
2023-04-27T09:48:34.112Z,74.0613
2023-04-27T09:49:35.241Z,72.6260
2023-04-27T09:50:37.899Z,73.1973
2023-04-27T09:51:36.417Z,71.4426
2023-04-27T09:52:37.154Z,72.1395
2023-04-27T09:53:37.918Z,70.1695
2023-04-27T09:54:38.562Z,70.6839
2023-04-27T09:55:39.087Z,69.1252
2023-04-27T09:56:39.748Z,68.3368
2023-04-27T09:57:40.222Z,68.5713
2023-04-27T09:58:40.919Z,66.8547
2023-04-27T09:59:41.794Z,66.5352
2023-04-27T10:00:42.311Z,66.6984
2023-04-27T10:01:43.528Z,68.0971
2023-04-27T10:02:53.051Z,71.1776
2023-04-27T10:03:48.640Z,70.4683
2023-04-27T10:04:49.067Z,69.7218
2023-04-27T10:05:50.000Z,69.1009
2023-04-27T10:06:50.621Z,69.2816
2023-04-27T10:07:51.341Z,67.4866
2023-04-27T10:08:51.858Z,65.9486
2023-04-27T10:09:52.038Z,64.8385
2023-04-27T10:10:53.148Z,65.7483
2023-04-27T10:11:53.636Z,65.1137
2023-04-27T10:12:54.394Z,65.9960
2023-04-27T10:13:55.117Z,61.8080
2023-04-27T10:14:56.095Z,62.9473
2023-04-27T10:15:56.827Z,62.4605
2023-04-27T10:16:58.413Z,63.5867
2023-04-27T10:17:59.340Z,63.0207
2023-04-27T10:19:00.511Z,67.1049
2023-04-27T10:20:01.392Z,64.0022
2023-04-27T10:21:02.037Z,62.0814
2023-04-27T10:22:02.779Z,63.2989
2023-04-27T10:23:03.410Z,62.2790
2023-04-27T10:24:04.077Z,61.8532
2023-04-27T10:25:04.732Z,63.2645
2023-04-27T10:26:05.285Z,62.5550
2023-04-27T10:27:05.898Z,61.4351
2023-04-27T10:28:06.573Z,61.6279
2023-04-27T10:29:07.132Z,62.9874
2023-04-27T10:30:07.992Z,63.4708
2023-04-27T10:31:08.604Z,64.0541
2023-04-27T10:32:09.395Z,62.9383
2023-04-27T10:33:09.627Z,62.9009
2023-04-27T10:34:10.244Z,62.1541
2023-04-27T10:35:10.928Z,60.4034
2023-04-27T10:36:11.448Z,60.0801
2023-04-27T10:37:12.155Z,59.1927
2023-04-27T10:38:12.749Z,60.3319
2023-04-27T10:39:13.355Z,61.5312
2023-04-27T10:40:28.572Z,59.6849
2023-04-27T10:41:29.267Z,59.9591
2023-04-27T10:42:29.813Z,63.2583
2023-04-27T10:43:30.444Z,60.7433
2023-04-27T10:44:31.263Z,59.5649
2023-04-27T10:45:32.102Z,58.4587
2023-04-27T10:46:31.946Z,57.4481
2023-04-27T10:47:32.498Z,57.7557
2023-04-27T10:48:33.759Z,58.0329
2023-04-27T10:49:34.424Z,58.3852
2023-04-27T10:50:34.935Z,57.9028
2023-04-27T10:51:35.603Z,58.4975
2023-04-27T10:52:36.264Z,59.7414
2023-04-27T10:53:36.830Z,59.4760
2023-04-27T10:54:37.575Z,58.0437
2023-04-27T10:55:38.087Z,58.3694
2023-04-27T10:56:38.762Z,59.2722
2023-04-27T10:57:39.547Z,60.1240
2023-04-27T10:58:48.907Z,59.4907
2023-04-27T10:59:41.243Z,58.7865
2023-04-27T11:00:41.899Z,58.7176
2023-04-27T11:01:42.618Z,60.7784
2023-04-27T11:02:43.820Z,58.4696
2023-04-27T11:03:45.857Z,57.4478
2023-04-27T11:04:45.872Z,58.0596
2023-04-27T11:05:46.713Z,57.4360
2023-04-27T11:06:47.244Z,57.3606
2023-04-27T11:07:47.894Z,57.6886
2023-04-27T11:08:48.511Z,57.3808
2023-04-27T11:09:48.962Z,57.4684
2023-04-27T11:10:49.715Z,58.0492
2023-04-27T11:11:50.697Z,59.0462
2023-04-27T11:12:51.197Z,58.8293
2023-04-27T11:13:51.907Z,58.7474
2023-04-27T11:14:52.479Z,57.8116
2023-04-27T11:15:53.549Z,58.5021
2023-04-27T11:16:54.700Z,57.9548
2023-04-27T11:17:55.479Z,57.6486
2023-04-27T11:18:57.907Z,57.4457
2023-04-27T11:19:57.549Z,57.6758
2023-04-27T11:20:58.501Z,57.9053
2023-04-27T11:21:59.291Z,57.4877
2023-04-27T11:22:59.914Z,57.9880
2023-04-27T11:24:00.487Z,58.9169
2023-04-27T11:25:01.534Z,59.1705
2023-04-27T11:26:01.960Z,60.2638
2023-04-27T11:27:02.518Z,59.8927
2023-04-27T11:28:03.206Z,58.2928
2023-04-27T11:29:03.641Z,58.4868
2023-04-27T11:30:03.658Z,58.5059
2023-04-27T11:31:04.315Z,59.2601
2023-04-27T11:32:05.113Z,58.8808
2023-04-27T11:33:06.071Z,58.6166
2023-04-27T11:34:07.924Z,59.6733
2023-04-27T11:35:07.493Z,60.7725
2023-04-27T11:36:08.128Z,59.2683
2023-04-27T11:38:09.488Z,58.0950
2023-04-27T11:39:10.466Z,59.0345
2023-04-27T11:40:11.190Z,59.3353
2023-04-27T11:41:11.879Z,54.1895
2023-04-27T11:42:12.555Z,53.3674
2023-04-27T11:43:13.127Z,52.7493
2023-04-27T11:44:13.812Z,52.3456
2023-04-27T11:45:14.398Z,52.4521
2023-04-27T11:46:15.043Z,51.3623
2023-04-27T11:47:17.524Z,49.6608
2023-04-27T11:48:16.880Z,46.9016
2023-04-27T11:49:18.075Z,46.4660
2023-04-27T11:50:18.864Z,44.9494
2023-04-27T11:51:19.428Z,45.2046
2023-04-27T11:52:20.060Z,44.3234
2023-04-27T11:53:20.807Z,45.1357
2023-04-27T11:54:21.817Z,45.0236
2023-04-27T11:55:22.460Z,45.8600
2023-04-27T11:56:23.232Z,46.2661
2023-04-27T11:57:23.650Z,47.0782
2023-04-27T11:58:24.327Z,47.4486
2023-04-27T11:59:25.239Z,48.0789
2023-04-27T12:00:26.017Z,47.8612
2023-04-27T12:01:36.923Z,47.3584
2023-04-27T12:02:27.962Z,47.2913
2023-04-27T12:03:27.848Z,45.7300
2023-04-27T12:04:29.877Z,45.9319
2023-04-27T12:05:30.161Z,46.0395
2023-04-27T12:06:34.688Z,47.4040
2023-04-27T12:07:35.671Z,46.8634
2023-04-27T12:08:36.446Z,47.2667
2023-04-27T12:09:37.562Z,47.7449
2023-04-27T12:10:38.341Z,48.2269
2023-04-27T12:11:38.946Z,46.7015
2023-04-27T12:12:39.593Z,46.4546
2023-04-27T12:13:40.325Z,47.3963
2023-04-27T12:14:41.120Z,48.2933
2023-04-27T12:15:42.197Z,48.9811
2023-04-27T12:16:43.155Z,47.3879
2023-04-27T12:17:44.291Z,47.3063
2023-04-27T12:18:45.229Z,48.1923
2023-04-27T12:19:45.777Z,45.6457
2023-04-27T12:20:46.532Z,45.5323
2023-04-27T12:21:46.892Z,45.0319
2023-04-27T12:22:47.380Z,43.4566
2023-04-27T12:23:48.051Z,44.8802
2023-04-27T12:24:49.097Z,44.7385
2023-04-27T12:25:49.883Z,44.0623
2023-04-27T12:26:50.524Z,44.1480
2023-04-27T12:27:51.010Z,45.5358
2023-04-27T12:28:51.714Z,47.2300
2023-04-27T12:29:52.214Z,45.7786
2023-04-27T12:30:52.968Z,44.0253
2023-04-27T12:31:54.009Z,42.4206
2023-04-27T12:32:54.596Z,41.6961
2023-04-27T12:33:55.556Z,42.0133
2023-04-27T12:34:56.347Z,42.3129
2023-04-27T12:35:56.862Z,41.3903
2023-04-27T12:36:57.621Z,41.1525
2023-04-27T12:37:58.416Z,42.4634
2023-04-27T12:38:59.046Z,43.1348
2023-04-27T12:39:59.813Z,43.3642
2023-04-27T12:41:00.906Z,40.7788
2023-04-27T12:42:01.541Z,40.3265
2023-04-27T12:43:03.152Z,39.3870
2023-04-27T12:44:03.984Z,40.2260
2023-04-27T12:45:04.273Z,40.8373
2023-04-27T12:46:05.093Z,40.2566
2023-04-27T12:47:05.749Z,40.2283
2023-04-27T12:48:06.457Z,40.2547
2023-04-27T12:49:07.169Z,38.4005
2023-04-27T12:50:07.789Z,37.4659
2023-04-27T12:51:08.396Z,38.2748
2023-04-27T12:52:08.951Z,40.1339
2023-04-27T12:53:09.542Z,40.2898
2023-04-27T12:54:11.281Z,38.4083